.
WxDataArchive / Data Records for 2015-02-26
2015-02-25 February 2015 2015-02-27

Data Records for Thursday, 26 February 2015

Time	Temp	Chill	HIndex	Humid	Dewpt	 Wind 	HiWind	WindDir	Rain 	Barom
-----	----	-----	------	-----	-----	------	------	-------	-----	-----
00:00	18.1	18.1	18.1	67	9.0	1	4	22	0.00	30.013 
00:05	18.0	18.0	18.0	67	8.9	2	4	112	0.00	30.013 
00:10	18.0	18.0	18.0	67	8.9	0	2	112	0.00	30.013 
00:15	17.7	17.7	17.7	66	8.3	2	7	90	0.00	30.011 
00:20	17.5	17.5	17.5	65	7.8	2	7	112	0.00	30.011 
00:25	17.3	17.3	17.3	65	7.6	2	5	112	0.00	30.011 
00:30	17.2	17.2	17.2	66	7.8	1	7	90	0.00	30.014 
00:35	17.0	17.0	17.0	66	7.6	1	4	68	0.00	30.014 
00:40	16.9	16.9	16.9	66	7.5	2	6	90	0.00	30.014 
00:45	16.7	16.7	16.7	66	7.3	2	7	90	0.00	30.016 
00:50	16.7	16.7	16.7	66	7.3	2	7	112	0.00	30.016 
00:55	16.5	16.5	16.5	67	7.5	2	7	90	0.00	30.016 
01:00	16.4	16.4	16.4	67	7.4	2	6	90	0.00	30.014 
01:05	16.2	16.2	16.2	67	7.2	2	6	90	0.00	30.014 
01:10	16.1	16.1	16.1	67	7.1	1	5	112	0.00	30.014 
01:15	16.1	16.1	16.1	67	7.1	1	5	112	0.00	30.011 
01:20	15.9	15.9	15.9	67	6.9	2	7	90	0.00	30.011 
01:25	15.7	15.7	15.7	67	6.7	1	5	90	0.00	30.011 
01:30	15.6	15.6	15.6	66	6.3	2	9	112	0.00	30.015 
01:35	15.4	15.4	15.4	67	6.4	2	9	90	0.00	30.015 
01:40	15.4	15.4	15.4	67	6.4	1	7	112	0.00	30.015 
01:45	15.2	15.2	15.2	67	6.2	2	6	112	0.00	30.018 
01:50	15.2	15.2	15.2	67	6.2	1	6	112	0.00	30.018 
01:55	15.2	15.2	15.2	68	6.6	2	7	90	0.00	30.018 
02:00	15.2	15.2	15.2	68	6.6	1	5	90	0.00	30.020 
02:05	15.2	15.2	15.2	68	6.6	1	4	90	0.00	30.020 
02:10	15.1	15.1	15.1	68	6.5	2	6	112	0.00	30.020 
02:15	15.1	15.1	15.1	68	6.5	2	7	90	0.00	30.022 
02:20	15.1	15.1	15.1	69	6.8	2	7	90	0.00	30.022 
02:25	14.9	14.9	14.9	69	6.6	2	7	90	0.00	30.022 
02:30	14.9	14.9	14.9	69	6.6	2	6	112	0.00	30.025 
02:35	14.9	14.9	14.9	69	6.6	1	5	112	0.00	30.025 
02:40	14.8	14.8	14.8	69	6.5	2	9	90	0.00	30.025 
02:45	14.8	14.8	14.8	68	6.2	3	9	90	0.00	30.021 
02:50	14.6	14.6	14.6	69	6.3	3	7	90	0.00	30.021 
02:55	14.6	14.6	14.6	69	6.3	1	3	90	0.00	30.021 
03:00	14.6	14.6	14.6	68	6.0	2	9	90	0.00	30.019 
03:05	14.4	14.4	14.4	69	6.1	2	5	112	0.00	30.019 
03:10	14.4	14.4	14.4	69	6.1	2	5	112	0.00	30.019 
03:15	14.3	14.3	14.3	69	6.0	1	5	90	0.00	30.019 
03:20	14.3	14.3	14.3	69	6.0	2	7	90	0.00	30.019 
03:25	14.1	14.1	14.1	69	5.8	3	9	112	0.00	30.019 
03:30	14.1	14.1	14.1	69	5.8	1	5	112	0.00	30.019 
03:35	14.0	14.0	14.0	70	6.0	2	5	90	0.00	30.019 
03:40	13.8	13.8	13.8	70	5.9	2	9	90	0.00	30.019 
03:45	13.6	13.6	13.6	71	6.0	2	5	90	0.00	30.022 
03:50	13.5	13.5	13.5	71	5.9	2	9	90	0.00	30.022 
03:55	13.3	13.3	13.3	71	5.7	1	6	90	0.00	30.022 
04:00	13.1	13.1	13.1	71	5.5	3	7	90	0.00	30.022 
04:05	12.9	12.9	12.9	72	5.6	2	4	90	0.00	30.022 
04:10	12.9	12.9	12.9	73	5.9	2	6	90	0.00	30.022 
04:15	12.9	12.9	12.9	73	5.9	1	6	90	0.00	30.031 
04:20	12.8	12.8	12.8	73	5.8	2	7	90	0.00	30.031 
04:25	12.8	12.8	12.8	73	5.8	3	7	112	0.00	30.031 
04:30	12.8	12.8	12.8	73	5.8	3	6	90	0.00	30.038 
04:35	12.8	12.8	12.8	73	5.8	1	6	68	0.00	30.038 
04:40	12.8	12.8	12.8	73	5.8	1	6	90	0.00	30.038 
04:45	12.6	12.6	12.6	73	5.6	1	5	90	0.00	30.040 
04:50	12.6	12.6	12.6	74	5.9	1	5	90	0.00	30.040 
04:55	12.6	12.6	12.6	74	5.9	1	6	112	0.00	30.040 
05:00	12.6	12.6	12.6	74	5.9	3	9	90	0.00	30.049 
05:05	12.6	12.6	12.6	75	6.2	2	6	90	0.00	30.049 
05:10	12.4	12.4	12.4	75	6.0	1	5	45	0.00	30.049 
05:15	12.4	12.4	12.4	75	6.0	2	9	90	0.00	30.054 
05:20	12.3	12.3	12.3	76	6.2	1	5	90	0.00	30.054 
05:25	12.3	12.3	12.3	76	6.2	1	7	90	0.00	30.054 
05:30	12.3	12.3	12.3	77	6.5	1	5	90	0.00	30.058 
05:35	12.1	12.1	12.1	77	6.3	1	4	90	0.00	30.058 
05:40	12.1	12.1	12.1	77	6.3	1	4	90	0.00	30.058 
05:45	12.1	12.1	12.1	78	6.6	1	6	90	0.00	30.068 
05:50	11.9	11.9	11.9	78	6.4	2	6	90	0.00	30.068 
05:55	11.7	11.7	11.7	78	6.2	2	6	90	0.00	30.068 
06:00	11.6	11.6	11.6	78	6.1	2	6	90	0.00	30.069 
06:05	11.6	11.6	11.6	79	6.4	1	4	112	0.00	30.069 
06:10	11.6	11.6	11.6	79	6.4	1	5	112	0.00	30.069 
06:15	11.6	11.6	11.6	79	6.4	2	5	90	0.00	30.069 
06:20	11.4	11.4	11.4	79	6.2	1	4	90	0.00	30.069 
06:25	11.4	11.4	11.4	80	6.5	0	3	90	0.00	30.069 
06:30	11.4	11.4	11.4	80	6.5	1	3	90	0.00	30.082 
06:35	11.4	11.4	11.4	80	6.5	1	3	90	0.00	30.082 
06:40	11.4	11.4	11.4	80	6.5	1	3	90	0.00	30.082 
06:45	11.4	11.4	11.4	80	6.5	0	2	90	0.00	30.087 
06:50	11.4	11.4	11.4	80	6.5	0	2	90	0.00	30.087 
06:55	11.4	11.4	11.4	81	6.7	0	2	90	0.00	30.087 
07:00	11.4	11.4	11.4	81	6.7	0	1	90	0.00	30.091 
07:05	11.4	11.4	11.4	81	6.7	1	2	90	0.00	30.091 
07:10	11.4	11.4	11.4	80	6.5	1	4	90	0.00	30.091 
07:15	11.4	11.4	11.4	80	6.5	0	3	90	0.00	30.090 
07:20	11.4	11.4	11.4	80	6.5	1	4	90	0.00	30.090 
07:25	11.4	11.4	11.4	80	6.5	0	2	45	0.00	30.090 
07:30	11.4	11.4	11.4	80	6.5	0	2	45	0.00	30.103 
07:35	11.4	11.4	11.4	80	6.5	0	3	45	0.00	30.103 
07:40	11.4	11.4	11.4	80	6.5	0	2	45	0.00	30.103 
07:45	11.4	11.4	11.4	80	6.5	0	3	68	0.00	30.117 
07:50	11.4	11.4	11.4	80	6.5	1	2	68	0.00	30.117 
07:55	11.6	11.6	11.6	79	6.4	1	4	90	0.00	30.117 
08:00	11.4	11.4	11.4	78	5.9	1	4	68	0.00	30.121 
08:05	11.4	11.4	11.4	78	5.9	1	3	68	0.00	30.121 
08:10	11.4	11.4	11.4	78	5.9	1	5	90	0.00	30.121 
08:15	11.2	11.2	11.2	77	5.4	1	5	90	0.00	30.132 
08:20	11.2	11.2	11.2	77	5.4	0	2	90	0.00	30.132 
08:25	11.4	11.4	11.4	77	5.6	0	3	68	0.00	30.132 
08:30	11.6	11.6	11.6	77	5.8	0	3	68	0.00	30.139 
08:35	11.7	11.7	11.7	77	5.9	1	3	68	0.00	30.139 
08:40	11.7	11.7	11.7	77	5.9	0	2	68	0.00	30.139 
08:45	11.7	11.7	11.7	77	5.9	0	3	68	0.00	30.149 
08:50	11.9	11.9	11.9	77	6.1	1	4	68	0.00	30.149 
08:55	11.7	11.7	11.7	76	5.6	1	7	22	0.00	30.149 
09:00	11.7	11.7	11.7	76	5.6	0	5	112	0.00	30.151 
09:05	11.7	11.7	11.7	76	5.6	1	4	112	0.00	30.151 
09:10	11.7	11.7	11.7	76	5.6	0	3	68	0.00	30.151 
09:15	11.9	11.9	11.9	75	5.5	0	3	68	0.00	30.160 
09:20	11.9	11.9	11.9	75	5.5	1	4	45	0.00	30.160 
09:25	11.7	11.7	11.7	75	5.3	1	4	22	0.00	30.160 
09:30	11.7	11.7	11.7	74	5.0	1	3	135	0.00	30.163 
09:35	11.6	11.6	11.6	74	4.9	1	4	0	0.00	30.163 
09:40	11.6	11.6	11.6	74	4.9	1	3	45	0.00	30.163 
09:45	11.7	11.7	11.7	74	5.0	0	1	45	0.00	30.170 
09:50	12.1	12.1	12.1	74	5.4	1	2	45	0.00	30.170 
09:55	12.1	12.1	12.1	73	5.1	1	3	315	0.00	30.170 
10:00	12.1	12.1	12.1	73	5.1	1	4	45	0.00	30.171 
10:05	12.3	12.3	12.3	72	5.0	1	3	0	0.00	30.171 
10:10	12.6	12.6	12.6	72	5.3	1	4	68	0.00	30.171 
10:15	12.6	12.6	12.6	71	5.0	1	6	45	0.00	30.173 
10:20	12.3	12.3	12.3	70	4.4	1	3	112	0.00	30.173 
10:25	12.1	12.1	12.1	69	3.9	1	10	68	0.00	30.173 
10:30	11.9	11.9	11.9	69	3.7	2	6	90	0.00	30.177 
10:35	12.1	12.1	12.1	70	4.2	1	3	90	0.00	30.177 
10:40	12.4	12.4	12.4	70	4.5	1	3	22	0.00	30.177 
10:45	12.9	12.9	12.9	69	4.7	1	5	45	0.00	30.179 
10:50	13.1	13.1	13.1	68	4.6	2	7	45	0.00	30.179 
10:55	13.3	13.3	13.3	67	4.4	2	5	45	0.00	30.179 
11:00	12.9	12.9	12.9	67	4.0	2	7	90	0.00	30.177 
11:05	13.1	13.1	13.1	68	4.6	1	5	68	0.00	30.177 
11:10	13.6	13.6	13.6	67	4.7	1	5	90	0.00	30.177 
11:15	13.6	13.6	13.6	65	4.1	2	6	45	0.00	30.181 
11:20	13.8	13.8	13.8	65	4.2	1	5	112	0.00	30.181 
11:25	14.1	14.1	14.1	65	4.5	2	4	45	0.00	30.181 
11:30	14.3	14.3	14.3	64	4.4	2	9	45	0.00	30.193 
11:35	14.6	14.6	14.6	64	4.7	1	6	90	0.00	30.193 
11:40	14.9	14.9	14.9	63	4.6	1	4	180	0.00	30.193 
11:45	14.9	14.9	14.9	62	4.3	1	4	22	0.00	30.193 
11:50	14.6	14.6	14.6	62	4.0	2	9	112	0.00	30.193 
11:55	14.6	14.6	14.6	61	3.6	1	4	45	0.00	30.193 
12:00	14.4	14.4	14.4	62	3.8	1	5	112	0.00	30.194 
12:05	14.4	14.4	14.4	61	3.4	2	9	112	0.00	30.194 
12:10	14.4	14.4	14.4	62	3.8	2	9	90	0.00	30.194 
12:15	14.8	14.8	14.8	61	3.8	2	7	45	0.00	30.191 
12:20	15.2	15.2	15.2	61	4.2	2	5	112	0.00	30.191 
12:25	15.4	15.4	15.4	60	4.0	2	7	112	0.00	30.191 
12:30	15.7	15.7	15.7	61	4.7	1	6	68	0.00	30.187 
12:35	15.7	15.7	15.7	60	4.3	1	4	22	0.00	30.187 
12:40	15.6	15.6	15.6	60	4.2	1	6	90	0.00	30.187 
12:45	15.7	15.7	15.7	60	4.3	1	4	90	0.00	30.181 
12:50	16.1	16.1	16.1	59	4.3	1	4	45	0.00	30.181 
12:55	16.5	16.5	16.5	59	4.7	1	4	22	0.00	30.181 
13:00	16.4	16.4	16.4	58	4.2	1	2	68	0.00	30.191 
13:05	16.5	16.5	16.5	58	4.3	1	4	22	0.00	30.191 
13:10	16.5	16.5	16.5	58	4.3	1	6	22	0.00	30.191 
13:15	16.5	16.5	16.5	57	4.0	1	5	68	0.00	30.190 
13:20	16.4	16.4	16.4	56	3.5	2	6	45	0.00	30.190 
13:25	16.1	16.1	16.1	55	2.8	2	6	45	0.00	30.190 
13:30	15.9	15.9	15.9	56	3.0	2	7	90	0.00	30.193 
13:35	16.1	16.1	16.1	56	3.2	2	6	90	0.00	30.193 
13:40	16.2	16.2	16.2	56	3.3	1	5	45	0.00	30.193 
13:45	16.2	16.2	16.2	56	3.3	2	6	112	0.00	30.188 
13:50	16.4	16.4	16.4	56	3.5	2	5	90	0.00	30.188 
13:55	16.9	16.9	16.9	56	4.0	0	3	45	0.00	30.188 
14:00	17.3	17.3	17.3	56	4.3	1	5	90	0.00	30.185 
14:05	17.7	17.7	17.7	57	5.1	1	5	90	0.00	30.185 
14:10	17.5	17.5	17.5	55	4.1	1	3	90	0.00	30.185 
14:15	17.5	17.5	17.5	56	4.5	1	3	90	0.00	30.184 
14:20	17.7	17.7	17.7	57	5.1	0	4	90	0.00	30.184 
14:25	17.8	17.8	17.8	57	5.2	1	4	90	0.00	30.184 
14:30	17.7	17.7	17.7	57	5.1	1	4	90	0.00	30.184 
14:35	17.7	17.7	17.7	57	5.1	0	1	90	0.00	30.184 
14:40	17.7	17.7	17.7	57	5.1	1	4	45	0.00	30.184 
14:45	18.0	18.0	18.0	58	5.7	0	4	68	0.00	30.192 
14:50	18.1	18.1	18.1	56	5.1	1	4	112	0.00	30.192 
14:55	18.1	18.1	18.1	55	4.7	1	5	112	0.00	30.192 
15:00	18.0	18.0	18.0	56	5.0	0	2	90	0.00	30.197 
15:05	18.0	18.0	18.0	56	5.0	1	5	270	0.00	30.197 
15:10	18.0	18.0	18.0	58	5.7	1	4	292	0.00	30.197 
15:15	18.1	18.1	18.1	57	5.5	0	2	292	0.00	30.204 
15:20	18.1	18.1	18.1	55	4.7	1	3	292	0.00	30.204 
15:25	18.0	18.0	18.0	56	5.0	0	2	292	0.00	30.204 
15:30	18.1	18.1	18.1	57	5.5	1	4	292	0.00	30.209 
15:35	18.1	18.1	18.1	57	5.5	0	2	292	0.00	30.209 
15:40	18.0	18.0	18.0	54	4.2	1	4	292	0.00	30.209 
15:45	18.0	18.0	18.0	53	3.8	1	4	292	0.00	30.215 
15:50	18.0	18.0	18.0	53	3.8	1	4	292	0.00	30.215 
15:55	18.0	18.0	18.0	52	3.4	1	3	292	0.00	30.215 
16:00	18.0	18.0	18.0	51	3.0	1	5	292	0.00	30.219 
16:05	18.0	18.0	18.0	51	3.0	2	5	270	0.00	30.219 
16:10	17.8	17.8	17.8	51	2.8	1	3	270	0.00	30.219 
16:15	17.8	17.8	17.8	51	2.8	1	4	270	0.00	30.221 
16:20	17.8	17.8	17.8	51	2.8	1	4	292	0.00	30.221 
16:25	18.0	18.0	18.0	52	3.4	1	2	292	0.00	30.221 
16:30	17.8	17.8	17.8	51	2.8	1	5	292	0.00	30.226 
16:35	17.8	17.8	17.8	53	3.6	1	2	292	0.00	30.226 
16:40	17.8	17.8	17.8	53	3.6	1	4	292	0.00	30.226 
16:45	17.7	17.7	17.7	53	3.5	1	4	292	0.00	30.231 
16:50	17.5	17.5	17.5	54	3.7	1	4	292	0.00	30.231 
16:55	17.5	17.5	17.5	55	4.1	1	6	292	0.00	30.231 
17:00	17.3	17.3	17.3	55	3.9	1	4	292	0.00	30.242 
17:05	17.3	17.3	17.3	55	3.9	1	3	292	0.00	30.242 
17:10	17.2	17.2	17.2	55	3.8	1	3	292	0.00	30.242 
17:15	17.2	17.2	17.2	56	4.2	0	2	338	0.00	30.248 
17:20	17.0	17.0	17.0	56	4.0	0	3	315	0.00	30.248 
17:25	17.0	17.0	17.0	56	4.0	0	2	315	0.00	30.248 
17:30	17.0	17.0	17.0	56	4.0	0	2	315	0.00	30.251 
17:35	16.9	16.9	16.9	57	4.3	1	4	315	0.00	30.251 
17:40	16.7	16.7	16.7	58	4.5	0	4	0	0.00	30.251 
17:45	16.5	16.5	16.5	59	4.7	0	2	22	0.00	30.257 
17:50	16.4	16.4	16.4	60	5.0	0	3	22	0.00	30.257 
17:55	16.2	16.2	16.2	61	5.1	0	3	0	0.00	30.257 
18:00	16.2	16.2	16.2	62	5.5	0	2	0	0.00	30.262 
18:05	16.1	16.1	16.1	62	5.4	0	3	0	0.00	30.262 
18:10	15.9	15.9	15.9	63	5.6	0	2	315	0.00	30.262 
18:15	15.7	15.7	15.7	63	5.4	0	2	315	0.00	30.271 
18:20	15.6	15.6	15.6	64	5.6	0	3	315	0.00	30.271 
18:25	15.4	15.4	15.4	65	5.8	0	1	315	0.00	30.271 
18:30	15.4	15.4	15.4	65	5.8	0	1	315	0.00	30.278 
18:35	15.2	15.2	15.2	66	5.9	0	1	315	0.00	30.278 
18:40	15.2	15.2	15.2	67	6.2	0	1	315	0.00	30.278 
18:45	15.1	15.1	15.1	67	6.1	0	1	315	0.00	30.284 
18:50	15.1	15.1	15.1	68	6.5	0	1	315	0.00	30.284 
18:55	14.9	14.9	14.9	68	6.3	0	1	315	0.00	30.284 
19:00	14.8	14.8	14.8	69	6.5	0	1	315	0.00	30.295 
19:05	14.8	14.8	14.8	69	6.5	0	0	---	0.00	30.295 
19:10	14.6	14.6	14.6	69	6.3	0	1	315	0.00	30.295 
19:15	14.6	14.6	14.6	69	6.3	0	0	---	0.00	30.300 
19:20	14.6	14.6	14.6	70	6.6	0	0	---	0.00	30.300 
19:25	14.6	14.6	14.6	69	6.3	0	0	---	0.00	30.300 
19:30	14.4	14.4	14.4	69	6.1	0	0	---	0.00	30.313 
19:35	14.4	14.4	14.4	68	5.8	0	0	---	0.00	30.313 
19:40	14.4	14.4	14.4	68	5.8	0	0	---	0.00	30.313 
19:45	14.3	14.3	14.3	67	5.4	0	0	---	0.00	30.317 
19:50	14.3	14.3	14.3	67	5.4	0	0	---	0.00	30.317 
19:55	14.1	14.1	14.1	67	5.2	0	0	---	0.00	30.317 
20:00	14.0	14.0	14.0	67	5.1	0	0	---	0.00	30.326 
20:05	13.8	13.8	13.8	66	4.6	0	0	---	0.00	30.326 
20:10	13.6	13.6	13.6	66	4.4	0	0	---	0.00	30.326 
20:15	13.5	13.5	13.5	66	4.3	0	0	---	0.00	30.328 
20:20	13.1	13.1	13.1	66	3.9	0	0	---	0.00	30.328 
20:25	12.9	12.9	12.9	67	4.0	0	0	---	0.00	30.328 
20:30	12.9	12.9	12.9	67	4.0	0	0	---	0.00	30.332 
20:35	13.1	13.1	13.1	67	4.2	0	0	---	0.00	30.332 
20:40	13.1	13.1	13.1	67	4.2	0	0	---	0.00	30.332 
20:45	13.1	13.1	13.1	66	3.9	0	0	---	0.00	30.333 
20:50	12.9	12.9	12.9	66	3.7	0	0	---	0.00	30.333 
20:55	12.8	12.8	12.8	67	3.9	0	0	---	0.00	30.333 
21:00	12.8	12.8	12.8	67	3.9	0	0	---	0.00	30.338 
21:05	12.6	12.6	12.6	67	3.8	0	0	---	0.00	30.338 
21:10	12.8	12.8	12.8	68	4.3	0	0	---	0.00	30.338 
21:15	12.9	12.9	12.9	68	4.4	0	0	---	0.00	30.345 
21:20	13.1	13.1	13.1	68	4.6	0	0	---	0.00	30.345 
21:25	13.3	13.3	13.3	68	4.7	0	0	---	0.00	30.345 
21:30	13.3	13.3	13.3	68	4.7	0	0	---	0.00	30.351 
21:35	13.5	13.5	13.5	68	4.9	0	0	---	0.00	30.351 
21:40	13.5	13.5	13.5	68	4.9	0	0	---	0.00	30.351 
21:45	13.6	13.6	13.6	68	5.0	0	0	---	0.00	30.360 
21:50	13.8	13.8	13.8	68	5.2	0	0	---	0.00	30.360 
21:55	13.8	13.8	13.8	67	4.9	0	0	---	0.00	30.360 
22:00	14.0	14.0	14.0	67	5.1	0	1	315	0.00	30.371 
22:05	14.0	14.0	14.0	65	4.4	0	2	315	0.00	30.371 
22:10	13.8	13.8	13.8	62	3.2	1	3	315	0.00	30.371 
22:15	13.6	13.6	13.6	62	3.0	0	2	338	0.00	30.378 
22:20	13.3	13.3	13.3	61	2.4	0	2	338	0.00	30.378 
22:25	12.9	12.9	12.9	60	1.7	0	1	338	0.00	30.378 
22:30	12.6	12.6	12.6	60	1.4	0	0	---	0.00	30.388 
22:35	12.3	12.3	12.3	60	1.1	0	0	---	0.00	30.388 
22:40	11.7	11.7	11.7	60	0.5	0	0	---	0.00	30.388 
22:45	11.2	11.2	11.2	61	0.4	0	0	---	0.00	30.394 
22:50	10.9	10.9	10.9	61	0.1	0	0	---	0.00	30.394 
22:55	10.4	10.4	10.4	61	-0.3	0	0	---	0.00	30.394 
23:00	10.0	10.0	10.0	61	-0.7	0	0	---	0.00	30.398 
23:05	9.5	9.5	9.5	62	-0.9	0	0	---	0.00	30.398 
23:10	9.2	9.2	9.2	62	-1.1	0	0	---	0.00	30.398 
23:15	8.8	8.8	8.8	62	-1.5	0	0	---	0.00	30.396 
23:20	8.4	8.4	8.4	62	-1.9	0	0	---	0.00	30.396 
23:25	7.9	7.9	7.9	63	-2.0	0	0	---	0.00	30.396 
23:30	7.6	7.6	7.6	64	-2.0	0	0	---	0.00	30.396 
23:35	7.2	7.2	7.2	64	-2.4	0	0	---	0.00	30.396 
23:40	6.9	6.9	6.9	64	-2.7	0	0	---	0.00	30.396 
23:45	6.5	6.5	6.5	64	-3.0	0	0	---	0.00	30.398 
23:50	6.0	6.0	6.0	65	-3.2	0	0	---	0.00	30.398 
23:55	5.8	5.8	5.8	65	-3.4	0	0	---	0.00	30.398 

CoCoRaHS
IN-AL-39
A2 Web Hosting
Creative Commons License
GoDaddy
search engine by freefind advanced

loaded 2018-11-13 16:58:29 • last modified 2010-11-18 10:43:29
Privacy PolicyDisclaimer
• wx.awcolley.com is powered by PmWiki v.2002016 •
• all content (unless otherwise noted) © 2018 A W Colley